sensor_id;sensor_type;location;lat;lon;timestamp;pressure;altitude;pressure_sealevel;temperature;humidity
34454;BME280;60061;52.080;5.312;2023-01-27T00:00:14;102492.0;;;5.43;100.0
34454;BME280;60061;52.080;5.312;2023-01-27T00:03:27;102496.0;;;5.44;100.0
34454;BME280;60061;52.080;5.312;2023-01-27T00:05:04;102496.0;;;5.53;100.0
34454;BME280;60061;52.080;5.312;2023-01-27T00:06:40;102497.0;;;5.58;100.0
34454;BME280;60061;52.080;5.312;2023-01-27T00:09:54;102497.0;;;5.49;100.0
34454;BME280;60061;52.080;5.312;2023-01-27T00:13:51;102492.0;;;5.51;100.0
34454;BME280;60061;52.080;5.312;2023-01-27T00:15:28;102481.0;;;5.43;100.0
34454;BME280;60061;52.080;5.312;2023-01-27T00:17:05;102486.99999999999;;;5.42;100.0
34454;BME280;60061;52.080;5.312;2023-01-27T00:24:44;102482.0;;;5.4;100.0
34454;BME280;60061;52.080;5.312;2023-01-27T00:26:21;102478.0;;;5.31;100.0
34454;BME280;60061;52.080;5.312;2023-01-27T00:27:58;102488.00000000001;;;5.26;100.0
34454;BME280;60061;52.080;5.312;2023-01-27T00:29:34;102489.00000000001;;;5.29;100.0
34454;BME280;60061;52.080;5.312;2023-01-27T00:35:10;102486.99999999999;;;5.32;100.0
34454;BME280;60061;52.080;5.312;2023-01-27T00:36:48;102489.00000000001;;;5.28;100.0
34454;BME280;60061;52.080;5.312;2023-01-27T00:38:27;102491.00000000001;;;5.26;100.0
34454;BME280;60061;52.080;5.312;2023-01-27T00:40:04;102495.0;;;5.32;100.0
34454;BME280;60061;52.080;5.312;2023-01-27T00:43:17;102492.0;;;5.25;100.0
34454;BME280;60061;52.080;5.312;2023-01-27T00:45:57;102496.0;;;5.26;100.0
34454;BME280;60061;52.080;5.312;2023-01-27T00:47:34;102494.0;;;5.25;100.0
34454;BME280;60061;52.080;5.312;2023-01-27T00:49:10;102501.0;;;5.36;100.0
34454;BME280;60061;52.080;5.312;2023-01-27T00:50:48;102506.0;;;5.22;100.0
34454;BME280;60061;52.080;5.312;2023-01-27T00:52:24;102501.0;;;5.24;100.0
34454;BME280;60061;52.080;5.312;2023-01-27T00:55:39;102496.0;;;5.23;100.0
34454;BME280;60061;52.080;5.312;2023-01-27T00:57:16;102500.0;;;5.18;100.0
34454;BME280;60061;52.080;5.312;2023-01-27T00:58:52;102496.0;;;4.97;100.0
34454;BME280;60061;52.080;5.312;2023-01-27T01:02:04;102493.0;;;5.12;100.0
34454;BME280;60061;52.080;5.312;2023-01-27T01:03:42;102505.0;;;5.15;100.0
34454;BME280;60061;52.080;5.312;2023-01-27T01:05:18;102505.0;;;4.89;100.0
34454;BME280;60061;52.080;5.312;2023-01-27T01:08:32;102506.0;;;4.96;100.0
34454;BME280;60061;52.080;5.312;2023-01-27T01:10:10;102505.0;;;4.88;100.0
34454;BME280;60061;52.080;5.312;2023-01-27T01:11:46;102505.0;;;4.93;100.0
34454;BME280;60061;52.080;5.312;2023-01-27T01:13:22;102509.99999999999;;;4.93;100.0
34454;BME280;60061;52.080;5.312;2023-01-27T01:16:34;102508.99999999999;;;4.86;100.0
34454;BME280;60061;52.080;5.312;2023-01-27T01:18:10;102507.0;;;4.95;100.0
34454;BME280;60061;52.080;5.312;2023-01-27T01:19:47;102509.99999999999;;;4.92;100.0
34454;BME280;60061;52.080;5.312;2023-01-27T01:23:00;102516.00000000001;;;4.95;100.0
34454;BME280;60061;52.080;5.312;2023-01-27T01:24:36;102517.0;;;4.99;100.0
34454;BME280;60061;52.080;5.312;2023-01-27T01:26:14;102520.0;;;4.88;100.0
34454;BME280;60061;52.080;5.312;2023-01-27T01:29:27;102516.00000000001;;;4.84;100.0
34454;BME280;60061;52.080;5.312;2023-01-27T01:31:05;102515.00000000001;;;4.89;100.0
34454;BME280;60061;52.080;5.312;2023-01-27T01:32:44;102520.0;;;4.88;100.0
34454;BME280;60061;52.080;5.312;2023-01-27T01:34:21;102518.0;;;4.82;100.0
34454;BME280;60061;52.080;5.312;2023-01-27T01:37:39;102517.0;;;4.93;100.0
34454;BME280;60061;52.080;5.312;2023-01-27T01:39:15;102517.0;;;4.93;100.0
34454;BME280;60061;52.080;5.312;2023-01-27T01:40:51;102525.0;;;4.95;100.0
34454;BME280;60061;52.080;5.312;2023-01-27T01:44:26;102521.0;;;4.92;100.0
34454;BME280;60061;52.080;5.312;2023-01-27T01:46:04;102519.0;;;4.91;100.0
34454;BME280;60061;52.080;5.312;2023-01-27T01:47:41;102526.0;;;5.0;100.0
34454;BME280;60061;52.080;5.312;2023-01-27T01:49:19;102525.0;;;5.03;100.0
34454;BME280;60061;52.080;5.312;2023-01-27T01:52:38;102522.0;;;5.12;100.0
34454;BME280;60061;52.080;5.312;2023-01-27T01:54:16;102527.0;;;5.16;100.0
34454;BME280;60061;52.080;5.312;2023-01-27T01:55:55;102528.0;;;5.14;100.0
34454;BME280;60061;52.080;5.312;2023-01-27T01:57:33;102530.0;;;5.14;100.0
34454;BME280;60061;52.080;5.312;2023-01-27T02:00:52;102528.0;;;5.03;100.0
34454;BME280;60061;52.080;5.312;2023-01-27T02:02:28;102526.0;;;5.0;100.0
34454;BME280;60061;52.080;5.312;2023-01-27T02:04:10;102522.0;;;5.04;100.0
34454;BME280;60061;52.080;5.312;2023-01-27T02:05:51;102527.0;;;5.04;100.0
34454;BME280;60061;52.080;5.312;2023-01-27T02:09:11;102528.0;;;5.12;100.0
34454;BME280;60061;52.080;5.312;2023-01-27T02:10:48;102531.0;;;4.99;100.0
34454;BME280;60061;52.080;5.312;2023-01-27T02:12:25;102542.0;;;5.0;100.0
34454;BME280;60061;52.080;5.312;2023-01-27T02:14:01;102538.00000000001;;;4.83;100.0
34454;BME280;60061;52.080;5.312;2023-01-27T02:17:16;102540.00000000001;;;5.07;100.0
34454;BME280;60061;52.080;5.312;2023-01-27T02:18:52;102538.00000000001;;;4.87;100.0
34454;BME280;60061;52.080;5.312;2023-01-27T02:20:35;102531.0;;;4.89;100.0
34454;BME280;60061;52.080;5.312;2023-01-27T02:24:00;102528.0;;;4.99;100.0
34454;BME280;60061;52.080;5.312;2023-01-27T02:25:46;102524.0;;;4.91;100.0
34454;BME280;60061;52.080;5.312;2023-01-27T02:27:23;102530.0;;;4.86;100.0
34454;BME280;60061;52.080;5.312;2023-01-27T02:29:02;102534.99999999999;;;4.86;100.0
34454;BME280;60061;52.080;5.312;2023-01-27T02:32:24;102536.99999999999;;;4.88;100.0
34454;BME280;60061;52.080;5.312;2023-01-27T02:34:04;102538.00000000001;;;4.84;100.0
34454;BME280;60061;52.080;5.312;2023-01-27T02:35:47;102533.99999999999;;;4.82;100.0
34454;BME280;60061;52.080;5.312;2023-01-27T02:37:27;102534.99999999999;;;4.68;100.0
34454;BME280;60061;52.080;5.312;2023-01-27T02:39:07;102540.00000000001;;;4.66;100.0
34454;BME280;60061;52.080;5.312;2023-01-27T02:42:27;102542.0;;;4.71;100.0
34454;BME280;60061;52.080;5.312;2023-01-27T02:44:04;102541.00000000001;;;4.62;100.0
34454;BME280;60061;52.080;5.312;2023-01-27T02:45:41;102541.00000000001;;;4.74;100.0
34454;BME280;60061;52.080;5.312;2023-01-27T02:48:53;102549.0;;;4.68;100.0
34454;BME280;60061;52.080;5.312;2023-01-27T02:50:31;102551.0;;;4.66;100.0
34454;BME280;60061;52.080;5.312;2023-01-27T02:52:07;102547.0;;;4.63;100.0
34454;BME280;60061;52.080;5.312;2023-01-27T02:55:21;102551.0;;;4.66;100.0
34454;BME280;60061;52.080;5.312;2023-01-27T02:56:58;102551.0;;;4.57;100.0
34454;BME280;60061;52.080;5.312;2023-01-27T02:58:34;102550.0;;;4.74;100.0
34454;BME280;60061;52.080;5.312;2023-01-27T03:00:12;102551.0;;;4.66;100.0
34454;BME280;60061;52.080;5.312;2023-01-27T03:03:26;102558.99999999999;;;4.66;100.0
34454;BME280;60061;52.080;5.312;2023-01-27T03:05:02;102567.0;;;4.8;100.0
34454;BME280;60061;52.080;5.312;2023-01-27T03:06:38;102570.0;;;4.71;100.0
34454;BME280;60061;52.080;5.312;2023-01-27T03:09:50;102567.0;;;4.74;100.0
34454;BME280;60061;52.080;5.312;2023-01-27T03:12:30;102564.00000000001;;;4.84;100.0
34454;BME280;60061;52.080;5.312;2023-01-27T03:14:07;102569.0;;;4.82;100.0
34454;BME280;60061;52.080;5.312;2023-01-27T03:19:52;102569.0;;;4.74;100.0
34454;BME280;60061;52.080;5.312;2023-01-27T03:21:28;102578.0;;;4.54;100.0
34454;BME280;60061;52.080;5.312;2023-01-27T03:23:04;102577.0;;;4.53;100.0
34454;BME280;60061;52.080;5.312;2023-01-27T03:26:18;102579.0;;;4.61;100.0
34454;BME280;60061;52.080;5.312;2023-01-27T03:27:54;102582.0;;;4.54;100.0
34454;BME280;60061;52.080;5.312;2023-01-27T03:30:04;102583.99999999999;;;4.53;100.0
34454;BME280;60061;52.080;5.312;2023-01-27T03:31:41;102579.0;;;4.45;100.0
34454;BME280;60061;52.080;5.312;2023-01-27T03:34:57;102589.00000000001;;;4.57;100.0
34454;BME280;60061;52.080;5.312;2023-01-27T03:47:33;102583.0;;;4.53;100.0
34454;BME280;60061;52.080;5.312;2023-01-27T03:49:09;102579.0;;;4.53;100.0
34454;BME280;60061;52.080;5.312;2023-01-27T03:50:56;102589.00000000001;;;4.45;100.0
34454;BME280;60061;52.080;5.312;2023-01-27T03:52:32;102592.0;;;4.38;100.0
34454;BME280;60061;52.080;5.312;2023-01-27T03:55:45;102584.99999999999;;;4.57;100.0
34454;BME280;60061;52.080;5.312;2023-01-27T03:57:22;102589.00000000001;;;4.53;100.0
34454;BME280;60061;52.080;5.312;2023-01-27T03:58:59;102584.99999999999;;;4.59;100.0
34454;BME280;60061;52.080;5.312;2023-01-27T04:06:53;102592.0;;;4.57;100.0
34454;BME280;60061;52.080;5.312;2023-01-27T04:08:29;102593.0;;;4.53;100.0
34454;BME280;60061;52.080;5.312;2023-01-27T04:10:06;102591.00000000001;;;4.42;100.0
34454;BME280;60061;52.080;5.312;2023-01-27T04:12:01;102599.0;;;4.55;100.0
34454;BME280;60061;52.080;5.312;2023-01-27T04:13:38;102595.0;;;4.58;100.0
34454;BME280;60061;52.080;5.312;2023-01-27T04:16:55;102598.0;;;4.59;100.0
34454;BME280;60061;52.080;5.312;2023-01-27T04:18:32;102599.0;;;4.49;100.0
34454;BME280;60061;52.080;5.312;2023-01-27T04:20:09;102605.0;;;4.51;100.0
34454;BME280;60061;52.080;5.312;2023-01-27T04:21:46;102603.0;;;4.57;100.0
34454;BME280;60061;52.080;5.312;2023-01-27T04:24:59;102605.0;;;4.53;100.0
34454;BME280;60061;52.080;5.312;2023-01-27T04:26:35;102608.99999999999;;;4.72;100.0
34454;BME280;60061;52.080;5.312;2023-01-27T04:28:12;102605.0;;;4.66;100.0
34454;BME280;60061;52.080;5.312;2023-01-27T04:31:24;102609.99999999999;;;4.55;100.0
34454;BME280;60061;52.080;5.312;2023-01-27T04:33:03;102608.99999999999;;;4.74;100.0
34454;BME280;60061;52.080;5.312;2023-01-27T04:34:40;102614.00000000001;;;4.62;100.0
34454;BME280;60061;52.080;5.312;2023-01-27T04:36:17;102615.00000000001;;;4.63;100.0
34454;BME280;60061;52.080;5.312;2023-01-27T04:39:30;102617.0;;;4.68;100.0
34454;BME280;60061;52.080;5.312;2023-01-27T04:41:07;102624.0;;;4.66;100.0
34454;BME280;60061;52.080;5.312;2023-01-27T04:42:44;102616.00000000001;;;4.72;100.0
34454;BME280;60061;52.080;5.312;2023-01-27T04:45:56;102616.00000000001;;;4.76;100.0
34454;BME280;60061;52.080;5.312;2023-01-27T04:47:32;102621.0;;;4.71;100.0
34454;BME280;60061;52.080;5.312;2023-01-27T04:49:08;102622.0;;;4.61;100.0
34454;BME280;60061;52.080;5.312;2023-01-27T04:52:21;102624.0;;;4.68;100.0
34454;BME280;60061;52.080;5.312;2023-01-27T04:53:58;102626.0;;;4.7;100.0
34454;BME280;60061;52.080;5.312;2023-01-27T04:55:34;102623.0;;;4.76;100.0
34454;BME280;60061;52.080;5.312;2023-01-27T04:57:11;102625.0;;;4.71;100.0
34454;BME280;60061;52.080;5.312;2023-01-27T05:00:24;102622.0;;;4.63;100.0
34454;BME280;60061;52.080;5.312;2023-01-27T05:02:03;102625.0;;;4.78;100.0
34454;BME280;60061;52.080;5.312;2023-01-27T05:03:39;102623.0;;;4.83;100.0
34454;BME280;60061;52.080;5.312;2023-01-27T05:06:52;102627.0;;;4.83;100.0
34454;BME280;60061;52.080;5.312;2023-01-27T05:08:29;102621.0;;;4.83;100.0
34454;BME280;60061;52.080;5.312;2023-01-27T05:10:07;102616.00000000001;;;4.78;100.0
34454;BME280;60061;52.080;5.312;2023-01-27T05:13:20;102617.0;;;4.68;100.0
34454;BME280;60061;52.080;5.312;2023-01-27T05:14:56;102623.0;;;4.78;100.0
34454;BME280;60061;52.080;5.312;2023-01-27T05:16:33;102629.0;;;4.74;100.0
34454;BME280;60061;52.080;5.312;2023-01-27T05:18:09;102628.0;;;4.57;100.0
34454;BME280;60061;52.080;5.312;2023-01-27T05:21:23;102634.99999999999;;;4.66;100.0
34454;BME280;60061;52.080;5.312;2023-01-27T05:24:05;102633.0;;;4.82;100.0
34454;BME280;60061;52.080;5.312;2023-01-27T05:25:42;102632.0;;;4.91;100.0
34454;BME280;60061;52.080;5.312;2023-01-27T05:27:19;102644.0;;;4.89;100.0
34454;BME280;60061;52.080;5.312;2023-01-27T05:28:57;102641.00000000001;;;4.84;100.0
34454;BME280;60061;52.080;5.312;2023-01-27T05:32:09;102644.0;;;4.93;100.0
34454;BME280;60061;52.080;5.312;2023-01-27T05:33:47;102642.0;;;4.99;100.0
34454;BME280;60061;52.080;5.312;2023-01-27T05:35:23;102646.0;;;5.04;100.0
34454;BME280;60061;52.080;5.312;2023-01-27T05:37:00;102648.0;;;4.96;100.0
34454;BME280;60061;52.080;5.312;2023-01-27T05:40:12;102645.0;;;4.97;100.0
34454;BME280;60061;52.080;5.312;2023-01-27T05:41:49;102652.0;;;4.93;100.0
34454;BME280;60061;52.080;5.312;2023-01-27T05:43:26;102654.0;;;4.84;100.0
34454;BME280;60061;52.080;5.312;2023-01-27T05:46:40;102651.0;;;4.78;100.0
34454;BME280;60061;52.080;5.312;2023-01-27T05:48:17;102658.99999999999;;;4.74;100.0
34454;BME280;60061;52.080;5.312;2023-01-27T05:49:53;102653.0;;;4.72;100.0
34454;BME280;60061;52.080;5.312;2023-01-27T05:53:08;102654.0;;;4.7;100.0
34454;BME280;60061;52.080;5.312;2023-01-27T05:54:44;102654.0;;;4.79;100.0
34454;BME280;60061;52.080;5.312;2023-01-27T05:56:21;102658.0;;;4.78;100.0
34454;BME280;60061;52.080;5.312;2023-01-27T05:57:58;102658.0;;;4.82;100.0
34454;BME280;60061;52.080;5.312;2023-01-27T06:01:12;102665.00000000001;;;4.7;100.0
34454;BME280;60061;52.080;5.312;2023-01-27T06:02:49;102666.00000000001;;;4.82;100.0
34454;BME280;60061;52.080;5.312;2023-01-27T06:04:26;102668.0;;;4.82;100.0
34454;BME280;60061;52.080;5.312;2023-01-27T06:07:40;102674.0;;;4.86;100.0
34454;BME280;60061;52.080;5.312;2023-01-27T06:09:17;102667.0;;;4.91;100.0
34454;BME280;60061;52.080;5.312;2023-01-27T06:10:53;102672.0;;;4.87;100.0
34454;BME280;60061;52.080;5.312;2023-01-27T06:14:05;102668.0;;;4.76;100.0
34454;BME280;60061;52.080;5.312;2023-01-27T06:15:43;102670.0;;;4.89;100.0
34454;BME280;60061;52.080;5.312;2023-01-27T06:17:20;102675.0;;;4.91;100.0
34454;BME280;60061;52.080;5.312;2023-01-27T06:18:57;102674.0;;;4.79;100.0
34454;BME280;60061;52.080;5.312;2023-01-27T06:22:10;102681.0;;;4.91;100.0
34454;BME280;60061;52.080;5.312;2023-01-27T06:23:46;102679.0;;;4.93;100.0
34454;BME280;60061;52.080;5.312;2023-01-27T06:25:23;102682.0;;;4.84;100.0
34454;BME280;60061;52.080;5.312;2023-01-27T06:28:36;102690.00000000001;;;4.8;100.0
34454;BME280;60061;52.080;5.312;2023-01-27T06:30:13;102688.00000000001;;;4.8;100.0
34454;BME280;60061;52.080;5.312;2023-01-27T06:31:49;102691.00000000001;;;4.86;100.0
34454;BME280;60061;52.080;5.312;2023-01-27T06:35:02;102692.0;;;4.83;100.0
34454;BME280;60061;52.080;5.312;2023-01-27T06:36:39;102695.0;;;4.78;100.0
34454;BME280;60061;52.080;5.312;2023-01-27T06:38:15;102693.0;;;4.74;100.0
34454;BME280;60061;52.080;5.312;2023-01-27T06:39:52;102704.0;;;4.79;100.0
34454;BME280;60061;52.080;5.312;2023-01-27T06:43:10;102701.0;;;4.78;100.0
34454;BME280;60061;52.080;5.312;2023-01-27T06:44:46;102701.0;;;4.66;100.0
34454;BME280;60061;52.080;5.312;2023-01-27T06:46:23;102696.0;;;4.7;100.0
34454;BME280;60061;52.080;5.312;2023-01-27T06:49:36;102698.0;;;4.75;100.0
34454;BME280;60061;52.080;5.312;2023-01-27T06:51:12;102700.0;;;4.78;100.0
34454;BME280;60061;52.080;5.312;2023-01-27T06:52:50;102697.0;;;4.7;100.0
34454;BME280;60061;52.080;5.312;2023-01-27T06:54:27;102697.0;;;4.71;100.0
34454;BME280;60061;52.080;5.312;2023-01-27T06:57:41;102698.0;;;4.74;100.0
34454;BME280;60061;52.080;5.312;2023-01-27T06:59:16;102702.0;;;4.7;100.0
34454;BME280;60061;52.080;5.312;2023-01-27T07:00:53;102698.0;;;4.76;100.0
34454;BME280;60061;52.080;5.312;2023-01-27T07:04:06;102692.0;;;4.78;100.0
34454;BME280;60061;52.080;5.312;2023-01-27T07:05:42;102696.0;;;4.68;100.0
34454;BME280;60061;52.080;5.312;2023-01-27T07:07:19;102700.0;;;4.61;100.0
34454;BME280;60061;52.080;5.312;2023-01-27T07:10:31;102694.0;;;4.57;100.0
34454;BME280;60061;52.080;5.312;2023-01-27T07:12:07;102694.0;;;4.66;100.0
34454;BME280;60061;52.080;5.312;2023-01-27T07:13:44;102697.0;;;4.53;100.0
34454;BME280;60061;52.080;5.312;2023-01-27T07:15:20;102702.0;;;4.64;100.0
34454;BME280;60061;52.080;5.312;2023-01-27T07:18:32;102706.0;;;4.45;100.0
34454;BME280;60061;52.080;5.312;2023-01-27T07:20:12;102707.0;;;4.47;100.0
34454;BME280;60061;52.080;5.312;2023-01-27T07:21:48;102704.0;;;4.41;100.0
34454;BME280;60061;52.080;5.312;2023-01-27T07:25:00;102705.0;;;4.45;100.0
34454;BME280;60061;52.080;5.312;2023-01-27T07:26:37;102707.0;;;4.39;100.0
34454;BME280;60061;52.080;5.312;2023-01-27T07:28:13;102701.0;;;4.41;100.0
34454;BME280;60061;52.080;5.312;2023-01-27T07:31:26;102704.0;;;4.51;100.0
34454;BME280;60061;52.080;5.312;2023-01-27T07:33:03;102705.0;;;4.57;100.0
34454;BME280;60061;52.080;5.312;2023-01-27T07:34:40;102711.99999999999;;;4.53;100.0
34454;BME280;60061;52.080;5.312;2023-01-27T07:36:16;102716.00000000001;;;4.53;100.0
34454;BME280;60061;52.080;5.312;2023-01-27T07:39:32;102717.0;;;4.45;100.0
34454;BME280;60061;52.080;5.312;2023-01-27T07:41:09;102708.0;;;4.5;100.0
34454;BME280;60061;52.080;5.312;2023-01-27T07:42:45;102714.00000000001;;;4.32;100.0
34454;BME280;60061;52.080;5.312;2023-01-27T07:45:57;102717.0;;;4.26;100.0
34454;BME280;60061;52.080;5.312;2023-01-27T07:47:33;102718.0;;;4.45;100.0
34454;BME280;60061;52.080;5.312;2023-01-27T07:49:11;102726.0;;;4.64;100.0
34454;BME280;60061;52.080;5.312;2023-01-27T07:52:24;102725.0;;;4.66;100.0
34454;BME280;60061;52.080;5.312;2023-01-27T07:54:01;102731.0;;;4.66;100.0
34454;BME280;60061;52.080;5.312;2023-01-27T07:55:39;102726.0;;;4.72;100.0
34454;BME280;60061;52.080;5.312;2023-01-27T07:57:16;102727.0;;;4.57;99.76
34454;BME280;60061;52.080;5.312;2023-01-27T08:00:30;102731.0;;;4.63;100.0
34454;BME280;60061;52.080;5.312;2023-01-27T08:02:08;102738.00000000001;;;4.53;100.0
34454;BME280;60061;52.080;5.312;2023-01-27T08:03:44;102734.99999999999;;;4.49;100.0
34454;BME280;60061;52.080;5.312;2023-01-27T08:06:57;102733.99999999999;;;4.57;100.0
34454;BME280;60061;52.080;5.312;2023-01-27T08:08:34;102739.00000000001;;;4.54;100.0
34454;BME280;60061;52.080;5.312;2023-01-27T08:10:11;102741.00000000001;;;4.63;100.0
34454;BME280;60061;52.080;5.312;2023-01-27T08:11:47;102742.0;;;4.59;100.0
34454;BME280;60061;52.080;5.312;2023-01-27T08:15:00;102748.0;;;4.51;100.0
34454;BME280;60061;52.080;5.312;2023-01-27T08:16:36;102743.0;;;4.55;100.0
34454;BME280;60061;52.080;5.312;2023-01-27T08:18:12;102742.0;;;4.61;100.0
34454;BME280;60061;52.080;5.312;2023-01-27T08:21:31;102744.0;;;4.57;99.32
34454;BME280;60061;52.080;5.312;2023-01-27T08:23:08;102742.0;;;4.46;100.0
34454;BME280;60061;52.080;5.312;2023-01-27T08:24:44;102742.0;;;4.55;99.87
34454;BME280;60061;52.080;5.312;2023-01-27T08:27:56;102742.0;;;4.55;100.0
34454;BME280;60061;52.080;5.312;2023-01-27T08:29:32;102742.0;;;4.47;99.65
34454;BME280;60061;52.080;5.312;2023-01-27T08:31:10;102745.0;;;4.53;99.83
34454;BME280;60061;52.080;5.312;2023-01-27T08:32:48;102743.0;;;4.49;100.0
34454;BME280;60061;52.080;5.312;2023-01-27T08:36:02;102742.0;;;4.51;100.0
34454;BME280;60061;52.080;5.312;2023-01-27T08:37:40;102744.0;;;4.39;100.0
34454;BME280;60061;52.080;5.312;2023-01-27T08:39:16;102744.0;;;4.49;100.0
34454;BME280;60061;52.080;5.312;2023-01-27T08:42:29;102742.0;;;4.46;100.0
34454;BME280;60061;52.080;5.312;2023-01-27T08:44:05;102746.0;;;4.51;100.0
34454;BME280;60061;52.080;5.312;2023-01-27T08:45:42;102746.0;;;4.57;100.0
34454;BME280;60061;52.080;5.312;2023-01-27T08:48:54;102748.0;;;4.38;99.93
34454;BME280;60061;52.080;5.312;2023-01-27T08:50:31;102751.0;;;4.39;100.0
34454;BME280;60061;52.080;5.312;2023-01-27T08:52:07;102748.0;;;4.61;100.0
34454;BME280;60061;52.080;5.312;2023-01-27T08:53:44;102750.0;;;4.5;100.0
34454;BME280;60061;52.080;5.312;2023-01-27T08:56:57;102755.0;;;4.39;100.0
34454;BME280;60061;52.080;5.312;2023-01-27T08:58:34;102761.99999999999;;;4.46;100.0
34454;BME280;60061;52.080;5.312;2023-01-27T09:00:11;102758.99999999999;;;4.46;100.0
34454;BME280;60061;52.080;5.312;2023-01-27T09:03:25;102764.00000000001;;;4.58;100.0
34454;BME280;60061;52.080;5.312;2023-01-27T09:05:03;102758.99999999999;;;4.54;100.0
34454;BME280;60061;52.080;5.312;2023-01-27T09:06:40;102769.0;;;4.54;100.0
34454;BME280;60061;52.080;5.312;2023-01-27T09:08:16;102774.0;;;4.46;100.0
34454;BME280;60061;52.080;5.312;2023-01-27T09:11:28;102781.0;;;4.58;100.0
34454;BME280;60061;52.080;5.312;2023-01-27T09:13:06;102781.0;;;4.61;100.0
34454;BME280;60061;52.080;5.312;2023-01-27T09:14:43;102779.0;;;4.75;100.0
34454;BME280;60061;52.080;5.312;2023-01-27T09:17:56;102783.0;;;4.43;99.84
34454;BME280;60061;52.080;5.312;2023-01-27T09:19:32;102789.00000000001;;;4.57;100.0
34454;BME280;60061;52.080;5.312;2023-01-27T09:21:08;102789.00000000001;;;4.64;100.0
34454;BME280;60061;52.080;5.312;2023-01-27T09:24:21;102786.99999999999;;;4.5;100.0
34454;BME280;60061;52.080;5.312;2023-01-27T09:25:57;102786.99999999999;;;4.72;100.0
34454;BME280;60061;52.080;5.312;2023-01-27T09:27:33;102783.99999999999;;;4.76;100.0
34454;BME280;60061;52.080;5.312;2023-01-27T09:29:10;102783.0;;;4.8;100.0
34454;BME280;60061;52.080;5.312;2023-01-27T09:32:23;102795.0;;;4.79;100.0
34454;BME280;60061;52.080;5.312;2023-01-27T09:33:59;102804.0;;;4.78;100.0
34454;BME280;60061;52.080;5.312;2023-01-27T09:35:39;102800.0;;;4.76;100.0
34454;BME280;60061;52.080;5.312;2023-01-27T09:38:58;102805.0;;;4.72;100.0
34454;BME280;60061;52.080;5.312;2023-01-27T09:40:49;102801.0;;;4.68;100.0
34454;BME280;60061;52.080;5.312;2023-01-27T09:42:45;102805.0;;;4.7;100.0
34454;BME280;60061;52.080;5.312;2023-01-27T09:48:27;102801.0;;;4.62;99.9
34454;BME280;60061;52.080;5.312;2023-01-27T09:50:30;102801.0;;;4.83;100.0
34454;BME280;60061;52.080;5.312;2023-01-27T09:52:33;102801.0;;;4.88;100.0
34454;BME280;60061;52.080;5.312;2023-01-27T09:54:34;102800.0;;;4.91;100.0
34454;BME280;60061;52.080;5.312;2023-01-27T09:56:33;102792.0;;;4.87;100.0
34454;BME280;60061;52.080;5.312;2023-01-27T09:58:57;102793.0;;;4.96;100.0
34454;BME280;60061;52.080;5.312;2023-01-27T10:00:52;102795.0;;;4.88;100.0
34454;BME280;60061;52.080;5.312;2023-01-27T10:05:00;102797.0;;;4.84;100.0
34454;BME280;60061;52.080;5.312;2023-01-27T10:07:52;102803.0;;;4.78;100.0
34454;BME280;60061;52.080;5.312;2023-01-27T10:11:17;102797.0;;;5.03;100.0
34454;BME280;60061;52.080;5.312;2023-01-27T10:14:55;102798.0;;;4.95;100.0
34454;BME280;60061;52.080;5.312;2023-01-27T10:16:52;102793.0;;;5.07;100.0
34454;BME280;60061;52.080;5.312;2023-01-27T10:18:50;102795.0;;;5.09;100.0
34454;BME280;60061;52.080;5.312;2023-01-27T10:20:39;102800.0;;;5.11;100.0
34454;BME280;60061;52.080;5.312;2023-01-27T10:22:29;102806.0;;;4.97;100.0
34454;BME280;60061;52.080;5.312;2023-01-27T10:24:19;102802.0;;;4.95;100.0
34454;BME280;60061;52.080;5.312;2023-01-27T10:26:12;102808.0;;;5.07;100.0
34454;BME280;60061;52.080;5.312;2023-01-27T10:27:57;102813.00000000001;;;5.07;100.0
34454;BME280;60061;52.080;5.312;2023-01-27T10:31:24;102808.99999999999;;;4.93;100.0
34454;BME280;60061;52.080;5.312;2023-01-27T10:33:09;102809.99999999999;;;4.93;100.0
34454;BME280;60061;52.080;5.312;2023-01-27T10:35:00;102815.00000000001;;;4.91;100.0
34454;BME280;60061;52.080;5.312;2023-01-27T10:36:49;102814.00000000001;;;5.03;100.0
34454;BME280;60061;52.080;5.312;2023-01-27T10:38:35;102819.0;;;5.07;100.0
34454;BME280;60061;52.080;5.312;2023-01-27T10:42:06;102811.99999999999;;;4.99;100.0
34454;BME280;60061;52.080;5.312;2023-01-27T10:44:00;102815.00000000001;;;5.13;100.0
34454;BME280;60061;52.080;5.312;2023-01-27T10:45:49;102821.0;;;5.08;100.0
34454;BME280;60061;52.080;5.312;2023-01-27T10:47:36;102816.00000000001;;;5.16;100.0
34454;BME280;60061;52.080;5.312;2023-01-27T10:49:25;102815.00000000001;;;5.14;100.0
34454;BME280;60061;52.080;5.312;2023-01-27T10:51:09;102819.0;;;5.05;100.0
34454;BME280;60061;52.080;5.312;2023-01-27T10:54:42;102823.0;;;5.09;100.0
34454;BME280;60061;52.080;5.312;2023-01-27T10:56:31;102828.0;;;4.88;100.0
34454;BME280;60061;52.080;5.312;2023-01-27T10:58:15;102829.0;;;4.87;100.0
34454;BME280;60061;52.080;5.312;2023-01-27T11:00:00;102824.0;;;4.91;100.0
34454;BME280;60061;52.080;5.312;2023-01-27T11:01:44;102817.0;;;4.95;100.0
34454;BME280;60061;52.080;5.312;2023-01-27T11:03:26;102818.0;;;4.92;100.0
34454;BME280;60061;52.080;5.312;2023-01-27T11:06:49;102818.0;;;4.99;100.0
34454;BME280;60061;52.080;5.312;2023-01-27T11:08:30;102814.00000000001;;;4.87;100.0
34454;BME280;60061;52.080;5.312;2023-01-27T11:10:15;102818.0;;;4.82;100.0
34454;BME280;60061;52.080;5.312;2023-01-27T11:11:55;102808.99999999999;;;4.89;100.0
34454;BME280;60061;52.080;5.312;2023-01-27T11:15:16;102801.0;;;4.95;100.0
34454;BME280;60061;52.080;5.312;2023-01-27T11:17:00;102808.99999999999;;;4.87;100.0
34454;BME280;60061;52.080;5.312;2023-01-27T11:18:40;102802.0;;;5.0;100.0
34454;BME280;60061;52.080;5.312;2023-01-27T11:20:26;102803.0;;;5.03;100.0
34454;BME280;60061;52.080;5.312;2023-01-27T11:23:58;102803.0;;;5.03;100.0
34454;BME280;60061;52.080;5.312;2023-01-27T11:25:52;102802.0;;;4.86;100.0
34454;BME280;60061;52.080;5.312;2023-01-27T11:27:43;102802.0;;;4.96;100.0